createdAt,value
2023-03-26T00:00:00.780Z,95385.94
2023-03-26T00:01:05.849Z,95383.47
2023-03-26T00:02:07.464Z,95378.69
2023-03-26T00:03:12.182Z,95381.75
2023-03-26T00:04:13.805Z,95385.72
2023-03-26T00:05:16.723Z,95387.50
2023-03-26T00:06:18.413Z,95388.97
2023-03-26T00:07:20.062Z,95385.59
2023-03-26T00:08:22.091Z,95385.84
2023-03-26T00:09:23.705Z,95380.41
2023-03-26T00:10:25.479Z,95384.41
2023-03-26T00:11:29.226Z,95380.09
2023-03-26T00:12:30.841Z,95383.16
2023-03-26T00:13:33.236Z,95390.66
2023-03-26T00:14:35.393Z,95388.38
2023-03-26T00:15:37.626Z,95389.31
2023-03-26T00:16:40.378Z,95387.72
2023-03-26T00:17:42.043Z,95388.50
2023-03-26T00:18:44.457Z,95384.03
2023-03-26T00:19:46.051Z,95394.56
2023-03-26T00:20:48.027Z,95390.56
2023-03-26T00:21:51.624Z,95389.28
2023-03-26T00:22:55.075Z,95392.03
2023-03-26T00:23:59.777Z,95391.56
2023-03-26T00:25:01.468Z,95395.44
2023-03-26T00:26:03.613Z,95394.81
2023-03-26T00:27:05.701Z,95390.53
2023-03-26T00:28:08.211Z,95396.59
2023-03-26T00:29:10.309Z,95388.47
2023-03-26T00:30:12.501Z,95396.31
2023-03-26T00:31:15.062Z,95390.09
2023-03-26T00:32:17.047Z,95388.47
2023-03-26T00:33:18.600Z,95391.50
2023-03-26T00:34:20.749Z,95383.06
2023-03-26T00:35:22.555Z,95386.69
2023-03-26T00:36:28.101Z,95396.72
2023-03-26T00:37:30.548Z,95388.28
2023-03-26T00:38:33.727Z,95391.78
2023-03-26T00:39:37.429Z,95391.59
2023-03-26T00:40:43.980Z,95380.41
2023-03-26T00:41:45.666Z,95396.06
2023-03-26T00:42:47.526Z,95389.16
2023-03-26T00:43:52.127Z,95389.31
2023-03-26T00:44:57.759Z,95390.13
2023-03-26T00:45:59.532Z,95393.13
2023-03-26T00:47:01.464Z,95389.13
2023-03-26T00:48:03.151Z,95394.56
2023-03-26T00:49:05.144Z,95390.56
2023-03-26T00:50:15.685Z,95388.66
2023-03-26T00:51:19.071Z,95391.03
2023-03-26T00:52:20.808Z,95393.00
2023-03-26T00:53:23.427Z,95390.31
2023-03-26T00:54:25.273Z,95387.94
2023-03-26T00:55:26.997Z,95388.41
2023-03-26T00:56:28.618Z,95387.16
2023-03-26T00:57:35.796Z,95392.78
2023-03-26T00:58:38.648Z,95384.31
2023-03-26T00:59:41.285Z,95391.50
2023-03-26T01:00:58.339Z,95391.31
2023-03-26T01:02:00.307Z,95389.91
2023-03-26T01:03:04.404Z,95392.44
2023-03-26T01:04:27.557Z,95394.81
2023-03-26T01:05:36.218Z,95394.19
2023-03-26T01:06:41.428Z,95396.94
2023-03-26T01:07:44.687Z,95399.78
2023-03-26T01:08:50.765Z,95389.06
2023-03-26T01:09:52.455Z,95387.63
2023-03-26T01:11:03.200Z,95399.41
2023-03-26T01:12:07.479Z,95397.47
2023-03-26T01:13:09.274Z,95384.69
2023-03-26T01:14:17.047Z,95390.56
2023-03-26T01:15:19.192Z,95383.66
2023-03-26T01:16:29.512Z,95385.53
2023-03-26T01:17:34.182Z,95387.09
2023-03-26T01:18:41.118Z,95383.38
2023-03-26T01:20:14.967Z,95381.72
2023-03-26T01:21:29.984Z,95381.75
2023-03-26T01:22:32.225Z,95375.31
2023-03-26T01:24:03.070Z,95377.34
2023-03-26T01:25:05.005Z,95377.97
2023-03-26T01:26:36.450Z,95368.09
2023-03-26T01:27:58.361Z,95369.63
2023-03-26T01:29:02.755Z,95366.88
2023-03-26T01:30:18.016Z,95361.19
2023-03-26T01:31:25.213Z,95364.16
2023-03-26T01:32:51.340Z,95369.38
2023-03-26T01:34:00.565Z,95365.56
2023-03-26T01:35:08.332Z,95360.84
2023-03-26T01:36:19.251Z,95358.59
2023-03-26T01:37:30.567Z,95365.25
2023-03-26T01:39:01.437Z,95359.22
2023-03-26T01:40:10.054Z,95359.09
2023-03-26T01:41:17.966Z,95361.06
2023-03-26T01:42:36.339Z,95368.69
2023-03-26T01:44:05.846Z,95366.06
2023-03-26T01:45:11.530Z,95364.72
2023-03-26T01:46:14.211Z,95358.91
2023-03-26T01:47:17.395Z,95353.13
2023-03-26T01:48:19.112Z,95352.44
2023-03-26T01:49:20.892Z,95349.38
2023-03-26T01:50:22.571Z,95356.28
2023-03-26T01:51:42.684Z,95346.03
2023-03-26T01:52:44.342Z,95342.81
2023-03-26T01:53:47.150Z,95341.81
2023-03-26T01:54:49.154Z,95339.81
2023-03-26T01:56:12.697Z,95334.53
2023-03-26T01:57:23.738Z,95333.72
2023-03-26T01:58:49.631Z,95329.41
2023-03-26T02:00:01.667Z,95323.19
2023-03-26T02:01:03.223Z,95328.00
2023-03-26T02:02:15.375Z,95329.91
2023-03-26T02:03:26.358Z,95325.31
2023-03-26T02:04:53.006Z,95330.88
2023-03-26T02:06:20.163Z,95325.97
2023-03-26T02:07:34.546Z,95324.69
2023-03-26T02:08:41.345Z,95316.56
2023-03-26T02:09:46.830Z,95318.44
2023-03-26T02:10:52.374Z,95320.38
2023-03-26T02:11:54.283Z,95315.66
2023-03-26T02:12:56.727Z,95322.13
2023-03-26T02:13:58.309Z,95321.47
2023-03-26T02:15:01.962Z,95322.41
2023-03-26T02:16:06.475Z,95329.78
2023-03-26T02:17:09.983Z,95313.88
2023-03-26T02:18:13.362Z,95320.75
2023-03-26T02:19:21.532Z,95316.94
2023-03-26T02:20:23.471Z,95317.63
2023-03-26T02:21:26.246Z,95319.19
2023-03-26T02:22:29.830Z,95311.16
2023-03-26T02:23:35.904Z,95311.81
2023-03-26T02:24:40.560Z,95313.06
2023-03-26T02:25:43.867Z,95317.88
2023-03-26T02:26:45.850Z,95317.38
2023-03-26T02:27:49.293Z,95320.72
2023-03-26T02:28:51.246Z,95317.59
2023-03-26T02:29:53.312Z,95319.44
2023-03-26T02:30:57.714Z,95320.19
2023-03-26T02:31:59.727Z,95322.69
2023-03-26T02:33:01.595Z,95314.31
2023-03-26T02:34:12.822Z,95317.94
2023-03-26T02:35:22.117Z,95314.56
2023-03-26T02:36:28.039Z,95310.44
2023-03-26T02:37:36.011Z,95304.59
2023-03-26T02:38:46.753Z,95308.91
2023-03-26T02:39:49.591Z,95303.34
2023-03-26T02:41:01.112Z,95304.44
2023-03-26T02:42:12.331Z,95303.72
2023-03-26T02:43:21.442Z,95299.31
2023-03-26T02:44:23.218Z,95301.97
2023-03-26T02:45:33.541Z,95296.63
2023-03-26T02:46:41.502Z,95292.03
2023-03-26T02:48:01.877Z,95295.16
2023-03-26T02:49:26.160Z,95291.13
2023-03-26T02:50:28.541Z,95295.31
2023-03-26T02:51:50.826Z,95286.22
2023-03-26T02:53:00.715Z,95286.31
2023-03-26T02:54:04.945Z,95286.66
2023-03-26T02:55:22.184Z,95285.44
2023-03-26T02:56:26.162Z,95282.94
2023-03-26T02:57:50.646Z,95271.06
2023-03-26T02:58:58.306Z,95273.59
2023-03-26T03:00:00.119Z,95267.59
2023-03-26T03:01:24.797Z,95260.78
2023-03-26T03:02:29.383Z,95256.25
2023-03-26T03:03:37.834Z,95257.94
2023-03-26T03:05:01.605Z,95258.06
2023-03-26T03:06:09.062Z,95253.75
2023-03-26T03:07:22.740Z,95252.94
2023-03-26T03:08:26.680Z,95256.47
2023-03-26T03:09:45.627Z,95249.16
2023-03-26T03:11:24.527Z,95246.13
2023-03-26T03:12:26.681Z,95240.34
2023-03-26T03:13:28.701Z,95245.88
2023-03-26T03:14:31.621Z,95244.16
2023-03-26T03:15:33.469Z,95242.25
2023-03-26T03:16:35.397Z,95249.97
2023-03-26T03:17:41.544Z,95244.25
2023-03-26T03:18:43.390Z,95244.09
2023-03-26T03:19:45.306Z,95249.97
2023-03-26T03:20:47.102Z,95240.56
2023-03-26T03:21:48.851Z,95248.06
2023-03-26T03:22:50.780Z,95245.69
2023-03-26T03:23:53.542Z,95247.09
2023-03-26T03:24:59.940Z,95252.13
2023-03-26T03:26:02.650Z,95249.94
2023-03-26T03:27:04.929Z,95254.66
2023-03-26T03:28:15.324Z,95250.94
2023-03-26T03:29:17.381Z,95250.84
2023-03-26T03:30:19.033Z,95251.06
2023-03-26T03:31:21.668Z,95246.13
2023-03-26T03:32:23.644Z,95253.16
2023-03-26T03:33:28.281Z,95243.72
2023-03-26T03:34:29.931Z,95246.44
2023-03-26T03:35:33.512Z,95248.75
2023-03-26T03:36:38.550Z,95240.53
2023-03-26T03:37:54.500Z,95237.03
2023-03-26T03:39:02.085Z,95237.03
2023-03-26T03:40:07.498Z,95236.41
2023-03-26T03:41:11.273Z,95233.03
2023-03-26T03:42:16.174Z,95229.81
2023-03-26T03:43:17.958Z,95229.50
2023-03-26T03:44:33.065Z,95227.28
2023-03-26T03:45:36.669Z,95224.19
2023-03-26T03:46:57.301Z,95212.72
2023-03-26T03:47:59.233Z,95221.84
2023-03-26T03:49:13.604Z,95221.47
2023-03-26T03:50:15.931Z,95216.25
2023-03-26T03:51:30.424Z,95213.03
2023-03-26T03:52:37.099Z,95211.94
2023-03-26T03:53:40.680Z,95207.53
2023-03-26T03:54:43.373Z,95209.72
2023-03-26T03:56:10.554Z,95205.63
2023-03-26T03:57:32.108Z,95196.09
2023-03-26T03:58:36.690Z,95194.81
2023-03-26T03:59:47.913Z,95192.25
2023-03-26T04:00:52.347Z,95192.25
2023-03-26T04:02:35.098Z,95195.59
2023-03-26T04:03:40.091Z,95192.81
2023-03-26T04:04:50.207Z,95194.22
2023-03-26T04:05:55.253Z,95188.59
2023-03-26T04:06:59.663Z,95187.13
2023-03-26T04:08:07.087Z,95189.03
2023-03-26T04:09:21.001Z,95191.94
2023-03-26T04:10:23.558Z,95194.16
2023-03-26T04:11:50.756Z,95183.44
2023-03-26T04:13:15.353Z,95187.56
2023-03-26T04:14:36.590Z,95183.25
2023-03-26T04:15:43.920Z,95185.81
2023-03-26T04:16:45.648Z,95192.66
2023-03-26T04:17:47.446Z,95183.44
2023-03-26T04:18:51.639Z,95187.81
2023-03-26T04:19:54.918Z,95189.81
2023-03-26T04:21:03.202Z,95191.50
2023-03-26T04:22:06.322Z,95186.97
2023-03-26T04:23:15.312Z,95182.72
2023-03-26T04:24:19.650Z,95191.50
2023-03-26T04:25:41.693Z,95188.25
2023-03-26T04:26:51.047Z,95187.94
2023-03-26T04:27:58.437Z,95184.13
2023-03-26T04:29:27.743Z,95181.53
2023-03-26T04:30:29.452Z,95175.31
2023-03-26T04:31:43.283Z,95176.13
2023-03-26T04:32:46.666Z,95175.16
2023-03-26T04:33:48.432Z,95177.22
2023-03-26T04:34:52.965Z,95176.94
2023-03-26T04:36:02.609Z,95168.59
2023-03-26T04:37:06.572Z,95175.63
2023-03-26T04:38:16.885Z,95171.81
2023-03-26T04:39:29.214Z,95170.72
2023-03-26T04:40:49.731Z,95166.91
2023-03-26T04:42:14.348Z,95161.78
2023-03-26T04:43:31.280Z,95158.16
2023-03-26T04:44:59.887Z,95154.03
2023-03-26T04:46:05.764Z,95156.94
2023-03-26T04:47:13.457Z,95150.50
2023-03-26T04:48:20.547Z,95151.81
2023-03-26T04:49:22.705Z,95147.19
2023-03-26T04:50:26.428Z,95149.91
2023-03-26T04:51:35.115Z,95156.13
2023-03-26T04:52:37.629Z,95142.88
2023-03-26T04:54:07.201Z,95150.22
2023-03-26T04:55:24.921Z,95149.41
2023-03-26T04:56:51.342Z,95146.91
2023-03-26T04:57:57.833Z,95146.09
2023-03-26T04:59:37.194Z,95136.00
2023-03-26T05:00:43.241Z,95143.94
2023-03-26T05:01:47.741Z,95132.50
2023-03-26T05:02:56.061Z,95140.13
2023-03-26T05:03:58.716Z,95138.81
2023-03-26T05:05:02.991Z,95139.31
2023-03-26T05:06:06.580Z,95140.38
2023-03-26T05:07:09.509Z,95138.59
2023-03-26T05:08:17.405Z,95135.25
2023-03-26T05:09:19.842Z,95133.84
2023-03-26T05:10:44.536Z,95132.75
2023-03-26T05:12:02.498Z,95122.97
2023-03-26T05:13:09.730Z,95131.63
2023-03-26T05:14:14.202Z,95125.78
2023-03-26T05:15:16.567Z,95129.28
2023-03-26T05:16:42.678Z,95129.44
2023-03-26T05:17:46.398Z,95132.16
2023-03-26T05:18:56.329Z,95128.69
2023-03-26T05:19:58.960Z,95122.97
2023-03-26T05:21:00.695Z,95118.34
2023-03-26T05:22:03.571Z,95117.84
2023-03-26T05:23:08.150Z,95112.28
2023-03-26T05:24:12.497Z,95105.88
2023-03-26T05:25:14.425Z,95112.09
2023-03-26T05:26:18.098Z,95107.16
2023-03-26T05:27:22.586Z,95114.19
2023-03-26T05:28:26.398Z,95097.31
2023-03-26T05:29:47.267Z,95096.06
2023-03-26T05:30:48.907Z,95087.00
2023-03-26T05:31:51.062Z,95076.81
2023-03-26T05:32:52.863Z,95077.00
2023-03-26T05:34:03.245Z,95068.75
2023-03-26T05:35:05.741Z,95064.78
2023-03-26T05:36:09.774Z,95069.09
2023-03-26T05:37:11.645Z,95060.81
2023-03-26T05:38:37.075Z,95070.53
2023-03-26T05:39:41.240Z,95065.13
2023-03-26T05:40:52.000Z,95074.13
2023-03-26T05:41:54.983Z,95071.06
2023-03-26T05:43:02.297Z,95066.44
2023-03-26T05:44:13.468Z,95072.84
2023-03-26T05:45:18.607Z,95070.75
2023-03-26T05:46:21.978Z,95075.53
2023-03-26T05:47:24.133Z,95075.06
2023-03-26T05:48:26.413Z,95080.69
2023-03-26T05:49:28.163Z,95076.69
2023-03-26T05:50:29.852Z,95077.34
2023-03-26T05:51:34.702Z,95078.75
2023-03-26T05:53:05.462Z,95076.97
2023-03-26T05:54:16.407Z,95074.09
2023-03-26T05:55:36.368Z,95067.84
2023-03-26T05:56:58.016Z,95082.19
2023-03-26T05:58:18.407Z,95062.34
2023-03-26T05:59:38.743Z,95067.59
2023-03-26T06:01:09.565Z,95067.88
2023-03-26T06:02:31.661Z,95068.09
2023-03-26T06:04:05.799Z,95066.25
2023-03-26T06:05:12.922Z,95068.94
2023-03-26T06:06:44.987Z,95059.38
2023-03-26T06:07:46.790Z,95050.91
2023-03-26T06:09:02.312Z,95050.06
2023-03-26T06:10:05.753Z,95044.09
2023-03-26T06:11:08.092Z,95045.69
2023-03-26T06:12:12.763Z,95038.81
2023-03-26T06:13:16.345Z,95052.19
2023-03-26T06:14:18.981Z,95053.06
2023-03-26T06:15:47.005Z,95054.97
2023-03-26T06:17:15.156Z,95050.47
2023-03-26T06:18:51.709Z,95040.41
2023-03-26T06:20:17.351Z,95039.94
2023-03-26T06:21:21.941Z,95040.84
2023-03-26T06:22:30.870Z,95039.56
2023-03-26T06:23:51.601Z,95040.81
2023-03-26T06:25:14.583Z,95041.75
2023-03-26T06:26:41.783Z,95047.56
2023-03-26T06:28:03.900Z,95044.19
2023-03-26T06:29:24.164Z,95048.78
2023-03-26T06:30:48.506Z,95041.69
2023-03-26T06:32:19.481Z,95046.34
2023-03-26T06:33:36.465Z,95042.22
2023-03-26T06:34:38.502Z,95043.13
2023-03-26T06:35:40.397Z,95035.78
2023-03-26T06:36:42.155Z,95035.94
2023-03-26T06:37:43.941Z,95038.97
2023-03-26T06:38:45.600Z,95037.75
2023-03-26T06:39:47.301Z,95038.09
2023-03-26T06:40:54.672Z,95035.19
2023-03-26T06:41:56.496Z,95042.53
2023-03-26T06:43:16.905Z,95031.19
2023-03-26T06:44:29.206Z,95038.81
2023-03-26T06:45:52.564Z,95032.56
2023-03-26T06:47:12.912Z,95024.41
2023-03-26T06:48:33.333Z,95025.63
2023-03-26T06:49:53.865Z,95028.63
2023-03-26T06:51:15.898Z,95029.91
2023-03-26T06:52:36.294Z,95027.03
2023-03-26T06:54:09.972Z,95022.44
2023-03-26T06:55:27.798Z,95020.63
2023-03-26T06:56:39.512Z,95019.78
2023-03-26T06:57:59.871Z,95025.81
2023-03-26T06:59:20.036Z,95021.31
2023-03-26T07:00:44.859Z,95025.84
2023-03-26T07:02:16.211Z,95024.09
2023-03-26T07:03:36.328Z,95024.09
2023-03-26T07:04:56.939Z,95023.13
2023-03-26T07:06:17.035Z,95012.13
2023-03-26T07:07:53.923Z,95008.75
2023-03-26T07:09:14.023Z,95004.16
2023-03-26T07:10:34.406Z,95010.06
2023-03-26T07:12:05.898Z,94989.50
2023-03-26T07:13:30.869Z,94987.94
2023-03-26T07:14:51.126Z,95002.00
2023-03-26T07:16:11.511Z,94998.66
2023-03-26T07:17:45.758Z,94993.56
2023-03-26T07:18:55.984Z,94983.69
2023-03-26T07:20:01.534Z,94987.50
2023-03-26T07:21:03.686Z,94979.19
2023-03-26T07:22:07.660Z,94973.13
2023-03-26T07:23:41.651Z,94973.97
2023-03-26T07:25:14.915Z,94972.59
2023-03-26T07:26:35.375Z,94973.22
2023-03-26T07:28:27.006Z,94957.44
2023-03-26T07:30:04.903Z,94951.81
2023-03-26T07:31:42.272Z,94946.09
2023-03-26T07:33:10.261Z,94934.28
2023-03-26T07:34:41.172Z,94941.78
2023-03-26T07:36:22.706Z,94932.88
2023-03-26T07:38:04.825Z,94932.41
2023-03-26T07:39:28.108Z,94932.41
2023-03-26T07:41:32.790Z,94935.13
2023-03-26T07:43:32.146Z,94937.72
2023-03-26T07:44:51.185Z,94927.44
2023-03-26T07:46:29.726Z,94915.47
2023-03-26T07:48:25.429Z,94909.94
2023-03-26T07:49:46.034Z,94903.56
2023-03-26T07:51:11.544Z,94906.06
2023-03-26T07:52:29.644Z,94900.03
2023-03-26T07:53:41.580Z,94900.81
2023-03-26T07:54:53.253Z,94899.03
2023-03-26T07:56:27.852Z,94896.31
2023-03-26T07:58:04.502Z,94895.19
2023-03-26T07:59:45.078Z,94888.63
2023-03-26T08:01:46.629Z,94892.78
2023-03-26T08:03:09.869Z,94892.00
2023-03-26T08:05:10.423Z,94889.28
2023-03-26T08:06:39.713Z,94872.47
2023-03-26T08:08:23.110Z,94865.22
2023-03-26T08:10:02.346Z,94862.38
2023-03-26T08:11:44.617Z,94853.38
2023-03-26T08:13:12.278Z,94846.47
2023-03-26T08:14:17.080Z,94842.31
2023-03-26T08:15:39.380Z,94840.72
2023-03-26T08:16:57.443Z,94851.25
2023-03-26T08:18:11.948Z,94853.66
2023-03-26T08:19:31.763Z,94859.56
2023-03-26T08:20:41.540Z,94866.28
2023-03-26T08:21:48.210Z,94858.13
2023-03-26T08:23:09.496Z,94861.72
2023-03-26T08:24:22.155Z,94855.63
2023-03-26T08:25:27.748Z,94857.34
2023-03-26T08:26:47.699Z,94860.28
2023-03-26T08:28:01.243Z,94859.47
2023-03-26T08:29:15.880Z,94861.06
2023-03-26T08:30:19.698Z,94861.53
2023-03-26T08:31:29.072Z,94863.47
2023-03-26T08:32:31.428Z,94861.06
2023-03-26T08:33:35.997Z,94870.19
2023-03-26T08:34:39.075Z,94862.19
2023-03-26T08:35:42.561Z,94867.81
2023-03-26T08:36:44.349Z,94858.88
2023-03-26T08:37:45.992Z,94857.09
2023-03-26T08:38:47.744Z,94842.03
2023-03-26T08:39:49.345Z,94837.25
2023-03-26T08:41:14.616Z,94843.56
2023-03-26T08:42:19.029Z,94844.22
2023-03-26T08:43:36.179Z,94843.75
2023-03-26T08:44:49.232Z,94847.59
2023-03-26T08:46:12.111Z,94840.91
2023-03-26T08:47:22.810Z,94842.50
2023-03-26T08:48:46.238Z,94848.75
2023-03-26T08:49:59.816Z,94851.47
2023-03-26T08:51:27.977Z,94852.22
2023-03-26T08:53:03.936Z,94847.94
2023-03-26T08:54:13.745Z,94851.25
2023-03-26T08:55:36.475Z,94847.88
2023-03-26T08:57:03.046Z,94846.41
2023-03-26T08:58:37.739Z,94850.47
2023-03-26T09:00:16.859Z,94852.19
2023-03-26T09:01:30.766Z,94849.19
2023-03-26T09:03:15.413Z,94853.44
2023-03-26T09:04:22.854Z,94847.34
2023-03-26T09:05:44.790Z,94843.56
2023-03-26T09:07:25.949Z,94838.66
2023-03-26T09:08:30.051Z,94842.78
2023-03-26T09:10:04.607Z,94833.56
2023-03-26T09:11:24.303Z,94828.31
2023-03-26T09:12:52.141Z,94826.88
2023-03-26T09:14:15.827Z,94816.00
2023-03-26T09:15:32.805Z,94820.88
2023-03-26T09:17:00.802Z,94821.16
2023-03-26T09:18:28.748Z,94822.09
2023-03-26T09:20:01.342Z,94824.53
2023-03-26T09:21:40.832Z,94833.47
2023-03-26T09:22:57.561Z,94834.44
2023-03-26T09:24:11.224Z,94835.19
2023-03-26T09:25:26.788Z,94832.84
2023-03-26T09:27:04.975Z,94841.50
2023-03-26T09:28:43.715Z,94852.19
2023-03-26T09:30:04.460Z,94857.34
2023-03-26T09:31:24.780Z,94853.84
2023-03-26T09:32:43.072Z,94841.38
2023-03-26T09:34:17.028Z,94836.53
2023-03-26T09:35:19.389Z,94833.16
2023-03-26T09:36:44.184Z,94831.25
2023-03-26T09:37:59.228Z,94828.19
2023-03-26T09:39:17.917Z,94817.59
2023-03-26T09:40:22.595Z,94803.06
2023-03-26T09:41:43.568Z,94808.31
2023-03-26T09:42:52.390Z,94807.63
2023-03-26T09:44:15.638Z,94810.56
2023-03-26T09:45:21.444Z,94810.75
2023-03-26T09:46:44.964Z,94801.94
2023-03-26T09:47:52.147Z,94809.28
2023-03-26T09:49:15.550Z,94804.66
2023-03-26T09:50:55.919Z,94801.34
2023-03-26T09:52:00.577Z,94791.88
2023-03-26T09:53:20.256Z,94784.44
2023-03-26T09:54:44.746Z,94780.97
2023-03-26T09:55:57.310Z,94785.31
2023-03-26T09:57:08.038Z,94793.19
2023-03-26T09:58:15.478Z,94796.81
2023-03-26T09:59:40.800Z,94810.97
2023-03-26T10:00:51.073Z,94804.88
2023-03-26T10:01:55.705Z,94793.25
2023-03-26T10:03:08.480Z,94783.19
2023-03-26T10:04:20.272Z,94777.78
2023-03-26T10:05:54.780Z,94779.16
2023-03-26T10:07:04.484Z,94770.88
2023-03-26T10:08:32.226Z,94775.53
2023-03-26T10:10:11.776Z,94771.34
2023-03-26T10:11:23.715Z,94773.94
2023-03-26T10:12:38.811Z,94769.06
2023-03-26T10:13:52.790Z,94773.13
2023-03-26T10:15:08.771Z,94762.38
2023-03-26T10:16:58.349Z,94767.34
2023-03-26T10:18:27.482Z,94770.53
2023-03-26T10:20:09.621Z,94764.72
2023-03-26T10:21:48.296Z,94768.72
2023-03-26T10:23:02.035Z,94779.59
2023-03-26T10:24:12.740Z,94781.19
2023-03-26T10:25:22.625Z,94779.81
2023-03-26T10:26:42.908Z,94772.00
2023-03-26T10:28:13.706Z,94778.25
2023-03-26T10:29:20.982Z,94770.97
2023-03-26T10:30:45.750Z,94758.97
2023-03-26T10:32:09.662Z,94760.78
2023-03-26T10:33:45.241Z,94753.41
2023-03-26T10:35:06.903Z,94751.25
2023-03-26T10:36:21.212Z,94757.59
2023-03-26T10:37:40.505Z,94760.19
2023-03-26T10:39:03.813Z,94762.50
2023-03-26T10:40:27.009Z,94765.75
2023-03-26T10:41:47.384Z,94753.72
2023-03-26T10:43:02.964Z,94755.88
2023-03-26T10:44:15.793Z,94767.31
2023-03-26T10:45:20.812Z,94756.88
2023-03-26T10:46:47.627Z,94760.97
2023-03-26T10:47:58.485Z,94760.72
2023-03-26T10:49:27.790Z,94758.00
2023-03-26T10:50:50.422Z,94754.81
2023-03-26T10:52:08.282Z,94760.00
2023-03-26T10:53:25.554Z,94752.47
2023-03-26T10:54:27.456Z,94750.06
2023-03-26T10:55:34.603Z,94748.56
2023-03-26T10:56:40.489Z,94739.34
2023-03-26T10:58:04.504Z,94745.38
2023-03-26T10:59:08.282Z,94742.19
2023-03-26T11:00:25.203Z,94746.34
2023-03-26T11:01:42.798Z,94753.91
2023-03-26T11:03:01.869Z,94760.28
2023-03-26T11:04:16.593Z,94755.31
2023-03-26T11:05:34.953Z,94760.66
2023-03-26T11:06:48.821Z,94775.56
2023-03-26T11:08:31.021Z,94782.44
2023-03-26T11:09:36.722Z,94766.47
2023-03-26T11:11:05.354Z,94768.56
2023-03-26T11:12:26.111Z,94763.56
2023-03-26T11:13:55.586Z,94776.72
2023-03-26T11:15:15.788Z,94761.28
2023-03-26T11:16:29.573Z,94759.28
2023-03-26T11:17:40.918Z,94757.03
2023-03-26T11:18:57.001Z,94744.97
2023-03-26T11:20:08.389Z,94749.56
2023-03-26T11:21:26.775Z,94750.78
2023-03-26T11:22:52.662Z,94725.19
2023-03-26T11:24:09.295Z,94725.69
2023-03-26T11:25:32.637Z,94719.81
2023-03-26T11:27:15.584Z,94706.97
2023-03-26T11:29:03.104Z,94724.19
2023-03-26T11:30:29.937Z,94721.13
2023-03-26T11:31:43.723Z,94709.50
2023-03-26T11:33:08.121Z,94703.97
2023-03-26T11:34:14.638Z,94700.53
2023-03-26T11:35:40.336Z,94715.41
2023-03-26T11:36:50.610Z,94716.28
2023-03-26T11:37:54.412Z,94713.75
2023-03-26T11:38:58.887Z,94722.91
2023-03-26T11:40:21.431Z,94718.88
2023-03-26T11:41:25.487Z,94711.13
2023-03-26T11:42:34.253Z,94716.66
2023-03-26T11:43:36.822Z,94722.97
2023-03-26T11:44:39.836Z,94721.19
2023-03-26T11:45:45.610Z,94726.66
2023-03-26T11:46:49.812Z,94717.34
2023-03-26T11:47:58.238Z,94717.56
2023-03-26T11:49:00.538Z,94711.66
2023-03-26T11:50:04.581Z,94718.25
2023-03-26T11:51:10.280Z,94712.31
2023-03-26T11:52:12.515Z,94716.72
2023-03-26T11:53:17.764Z,94721.25
2023-03-26T11:54:21.050Z,94709.44
2023-03-26T11:55:24.264Z,94719.44
2023-03-26T11:57:04.819Z,94720.38
2023-03-26T11:58:21.389Z,94721.69
2023-03-26T11:59:56.468Z,94720.75
2023-03-26T12:00:59.339Z,94714.06
2023-03-26T12:02:10.059Z,94716.06
2023-03-26T12:03:15.772Z,94718.00
2023-03-26T12:04:31.457Z,94711.00
2023-03-26T12:05:49.069Z,94721.63
2023-03-26T12:07:00.196Z,94712.53
2023-03-26T12:08:19.601Z,94713.88
2023-03-26T12:09:22.549Z,94707.72
2023-03-26T12:10:35.121Z,94705.72
2023-03-26T12:11:37.363Z,94710.13
2023-03-26T12:12:41.351Z,94697.06
2023-03-26T12:13:45.566Z,94709.41
2023-03-26T12:14:47.717Z,94705.72
2023-03-26T12:15:49.732Z,94703.09
2023-03-26T12:17:06.722Z,94711.28
2023-03-26T12:18:26.005Z,94724.84
2023-03-26T12:19:35.580Z,94722.53
2023-03-26T12:20:38.807Z,94724.28
2023-03-26T12:21:49.775Z,94716.16
2023-03-26T12:22:59.529Z,94735.94
2023-03-26T12:24:05.706Z,94723.91
2023-03-26T12:25:17.666Z,94724.75
2023-03-26T12:26:22.164Z,94727.22
2023-03-26T12:27:25.975Z,94721.16
2023-03-26T12:28:32.106Z,94728.63
2023-03-26T12:29:34.578Z,94721.16
2023-03-26T12:30:38.045Z,94712.06
2023-03-26T12:31:42.581Z,94714.25
2023-03-26T12:32:46.684Z,94710.22
2023-03-26T12:34:07.582Z,94710.00
2023-03-26T12:35:18.822Z,94712.88
2023-03-26T12:36:29.136Z,94718.34
2023-03-26T12:37:39.290Z,94716.94
2023-03-26T12:38:42.510Z,94715.28
2023-03-26T12:40:08.889Z,94708.22
2023-03-26T12:42:52.691Z,94708.38
2023-03-26T12:44:47.212Z,94704.06
2023-03-26T12:44:55.536Z,94712.97
2023-03-26T12:45:23.944Z,94704.97
2023-03-26T12:47:54.962Z,94698.41
2023-03-26T12:48:00.766Z,94700.88
2023-03-26T12:49:06.401Z,94706.03
2023-03-26T12:50:13.090Z,94697.91
2023-03-26T12:51:14.657Z,94709.81
2023-03-26T12:53:02.677Z,94707.47
2023-03-26T12:54:23.594Z,94704.47
2023-03-26T12:56:11.706Z,94707.88
2023-03-26T12:57:24.775Z,94717.84
2023-03-26T12:58:32.485Z,94709.72
2023-03-26T12:59:40.121Z,94715.91
2023-03-26T13:01:03.533Z,94702.13
2023-03-26T13:02:33.255Z,94691.44
2023-03-26T13:03:43.972Z,94687.78
2023-03-26T13:05:04.390Z,94697.97
2023-03-26T13:07:02.093Z,94691.44
2023-03-26T13:08:22.697Z,94685.63
2023-03-26T13:09:42.786Z,94696.53
2023-03-26T13:10:53.439Z,94686.38
2023-03-26T13:12:07.096Z,94688.72
2023-03-26T13:13:17.861Z,94679.59
2023-03-26T13:14:19.409Z,94695.31
2023-03-26T13:15:33.146Z,94719.91
2023-03-26T13:16:53.046Z,94754.97
2023-03-26T13:18:09.393Z,94788.09
2023-03-26T13:19:23.220Z,94786.66
2023-03-26T13:20:43.373Z,94771.97
2023-03-26T13:22:02.136Z,94773.03
2023-03-26T13:23:31.631Z,94768.31
2023-03-26T13:24:50.103Z,94758.63
2023-03-26T13:26:26.457Z,94745.22
2023-03-26T13:27:37.276Z,94738.53
2023-03-26T13:29:14.218Z,94730.69
2023-03-26T13:30:25.399Z,94715.06
2023-03-26T13:31:57.544Z,94712.75
2023-03-26T13:33:21.500Z,94704.09
2023-03-26T13:34:34.491Z,94699.56
2023-03-26T13:36:24.413Z,94687.69
2023-03-26T13:38:06.382Z,94678.03
2023-03-26T13:39:27.856Z,94674.50
2023-03-26T13:40:29.485Z,94678.75
2023-03-26T13:41:46.906Z,94669.81
2023-03-26T13:43:11.605Z,94668.22
2023-03-26T13:44:25.806Z,94662.53
2023-03-26T13:45:42.363Z,94654.38
2023-03-26T13:46:55.676Z,94642.41
2023-03-26T13:47:58.496Z,94641.72
2023-03-26T13:49:08.231Z,94637.25
2023-03-26T13:50:29.262Z,94643.47
2023-03-26T13:51:39.566Z,94638.78
2023-03-26T13:53:31.033Z,94642.72
2023-03-26T13:54:37.757Z,94640.19
2023-03-26T13:55:47.874Z,94634.75
2023-03-26T13:57:02.955Z,94628.03
2023-03-26T13:58:16.497Z,94621.63
2023-03-26T13:59:36.400Z,94622.53
2023-03-26T14:00:54.462Z,94617.81
2023-03-26T14:02:02.132Z,94615.88
2023-03-26T14:03:23.968Z,94609.63
2023-03-26T14:04:39.540Z,94608.56
2023-03-26T14:05:46.129Z,94597.53
2023-03-26T14:07:21.068Z,94596.03
2023-03-26T14:08:34.003Z,94590.13
2023-03-26T14:09:48.216Z,94589.69
2023-03-26T14:10:56.101Z,94583.00
2023-03-26T14:11:58.075Z,94577.81
2023-03-26T14:13:49.106Z,94574.84
2023-03-26T14:15:07.199Z,94576.78
2023-03-26T14:16:15.001Z,94579.31
2023-03-26T14:17:19.750Z,94570.31
2023-03-26T14:18:43.228Z,94586.25
2023-03-26T14:20:22.420Z,94576.56
2023-03-26T14:21:34.204Z,94583.00
2023-03-26T14:22:45.636Z,94579.13
2023-03-26T14:23:53.436Z,94582.03
2023-03-26T14:25:08.538Z,94580.94
2023-03-26T14:26:31.370Z,94574.25